Time,TemperatureF,DewpointF,PressureIn,WindDirection,WindDirectionDegrees,WindSpeedMPH,WindSpeedGustMPH,Humidity,HourlyPrecipIn,Conditions,Clouds,dailyrainin,SolarRadiationWatts/m^2,SoftwareType,DateUTC
2013-04-26 00:03:00,41.2,39.9,30.05,NW,304,3.5,3.5,95,0.00,RA,,0.00,0.0,WeatherDisplay:10.37,2013-04-25 23:03:00,
2013-04-26 00:08:00,41.1,39.8,30.05,NW,316,3.0,3.0,95,0.00,RA,,0.00,0.0,WeatherDisplay:10.37,2013-04-25 23:08:00,
2013-04-26 00:14:00,41.1,39.8,30.05,SW,233,3.5,3.5,95,0.00,CLR,,0.00,0.0,WeatherDisplay:10.37,2013-04-25 23:14:00,
2013-04-26 00:19:00,41.1,39.8,30.05,WNW,294,3.5,3.5,95,0.00,CLR,,0.00,0.0,WeatherDisplay:10.37,2013-04-25 23:19:00,
2013-04-26 00:24:00,40.9,39.6,30.05,WNW,289,0.0,0.0,95,0.00,CLR,,0.00,0.0,WeatherDisplay:10.37,2013-04-25 23:24:00,
2013-04-26 00:29:00,40.8,39.5,30.05,WSW,241,3.5,3.5,95,0.00,CLR,,0.00,0.0,WeatherDisplay:10.37,2013-04-25 23:29:00,
2013-04-26 00:34:00,40.6,39.3,30.04,SW,224,2.3,2.3,95,0.00,CLR,,0.00,0.0,WeatherDisplay:10.37,2013-04-25 23:34:00,
2013-04-26 00:39:00,40.5,39.2,30.04,WSW,241,2.3,0.0,95,0.00,CLR,,0.00,0.0,WeatherDisplay:10.37,2013-04-25 23:39:00,
2013-04-26 00:44:00,40.3,39.0,30.04,SW,232,1.2,1.2,95,0.00,CLR,,0.00,0.0,WeatherDisplay:10.37,2013-04-25 23:44:00,
2013-04-26 00:49:00,40.3,39.0,30.04,North,357,3.5,3.5,95,0.00,CLR,,0.00,0.0,WeatherDisplay:10.37,2013-04-25 23:49:00,
2013-04-26 00:54:00,40.3,39.3,30.04,SW,236,3.5,3.5,96,0.00,CLR,,0.00,0.0,WeatherDisplay:10.37,2013-04-25 23:54:00,
2013-04-26 00:59:00,40.2,39.2,30.04,West,281,2.3,0.0,96,0.00,CLR,,0.00,0.0,WeatherDisplay:10.37,2013-04-25 23:59:00,
2013-04-26 01:04:00,40.1,39.1,30.03,WSW,257,3.5,3.5,96,0.00,CLR,,0.00,0.0,WeatherDisplay:10.37,2013-04-26 00:04:00,
2013-04-26 01:09:00,40.1,39.1,30.03,WNW,302,3.5,3.5,96,0.00,CLR,,0.00,0.0,WeatherDisplay:10.37,2013-04-26 00:09:00,
2013-04-26 01:15:00,39.9,38.9,30.03,West,268,1.2,1.2,96,0.00,CLR,,0.00,0.0,WeatherDisplay:10.37,2013-04-26 00:15:00,
2013-04-26 01:20:00,39.8,38.8,30.03,SW,233,3.5,3.5,96,0.00,CLR,,0.00,0.0,WeatherDisplay:10.37,2013-04-26 00:20:00,
2013-04-26 01:25:00,39.8,38.8,30.03,SW,229,3.5,3.5,96,0.00,CLR,,0.00,0.0,WeatherDisplay:10.37,2013-04-26 00:25:00,
2013-04-26 01:30:00,39.6,38.6,30.03,WNW,302,2.3,2.3,96,0.00,CLR,,0.00,0.0,WeatherDisplay:10.37,2013-04-26 00:30:00,
2013-04-26 01:35:00,39.6,38.6,30.03,NW,304,2.3,0.0,96,0.00,CLR,,0.00,0.0,WeatherDisplay:10.37,2013-04-26 00:35:00,
2013-04-26 01:40:00,39.6,38.6,30.03,WNW,301,3.5,3.5,96,0.00,CLR,,0.00,0.0,WeatherDisplay:10.37,2013-04-26 00:40:00,
2013-04-26 01:45:00,39.6,38.8,30.03,NW,308,2.3,2.3,97,0.00,CLR,,0.00,0.0,WeatherDisplay:10.37,2013-04-26 00:45:00,
2013-04-26 01:50:00,39.6,38.8,30.02,WNW,291,2.3,2.3,97,0.00,CLR,,0.00,0.0,WeatherDisplay:10.37,2013-04-26 00:50:00,
2013-04-26 01:55:00,39.5,38.7,30.02,NW,313,2.3,2.3,97,0.00,CLR,,0.00,0.0,WeatherDisplay:10.37,2013-04-26 00:55:00,
2013-04-26 02:01:00,39.5,38.7,30.02,NNW,333,6.9,6.9,97,0.00,CLR,,0.00,0.0,WeatherDisplay:10.37,2013-04-26 01:01:00,
2013-04-26 02:06:00,39.3,38.3,30.02,West,278,3.5,3.5,96,0.00,CLR,,0.00,0.0,WeatherDisplay:10.37,2013-04-26 01:06:00,
2013-04-26 02:11:00,39.2,38.2,30.02,WNW,295,4.6,4.6,96,0.00,CLR,,0.00,0.0,WeatherDisplay:10.37,2013-04-26 01:11:00,
2013-04-26 02:16:00,39.2,38.2,30.02,North,350,3.5,3.5,96,0.00,CLR,,0.00,0.0,WeatherDisplay:10.37,2013-04-26 01:16:00,
2013-04-26 02:21:00,39.1,38.1,30.02,NNW,336,3.5,3.5,96,0.00,CLR,,0.00,0.0,WeatherDisplay:10.37,2013-04-26 01:21:00,
2013-04-26 02:26:00,39.1,37.8,30.02,NNW,346,3.0,3.0,95,0.00,CLR,,0.00,0.0,WeatherDisplay:10.37,2013-04-26 01:26:00,
2013-04-26 02:31:00,38.9,37.6,30.01,WNW,287,3.5,3.5,95,0.00,CLR,,0.00,0.0,WeatherDisplay:10.37,2013-04-26 01:31:00,
2013-04-26 02:36:00,38.9,37.3,30.01,North,352,1.2,1.2,94,0.00,CLR,,0.00,0.0,WeatherDisplay:10.37,2013-04-26 01:36:00,
2013-04-26 02:41:00,38.8,37.2,30.01,WSW,241,4.6,4.6,94,0.00,CLR,,0.00,0.0,WeatherDisplay:10.37,2013-04-26 01:41:00,
2013-04-26 02:46:00,38.8,37.2,30.01,NNW,340,5.8,5.8,94,0.00,CLR,,0.00,0.0,WeatherDisplay:10.37,2013-04-26 01:46:00,
2013-04-26 02:52:00,38.6,37.0,30.01,North,0,2.3,2.3,94,0.00,CLR,,0.00,0.0,WeatherDisplay:10.37,2013-04-26 01:52:00,
2013-04-26 02:57:00,38.5,36.7,30.00,WSW,256,4.6,4.6,93,0.00,CLR,,0.00,0.0,WeatherDisplay:10.37,2013-04-26 01:57:00,
2013-04-26 03:02:00,38.3,36.5,30.00,North,353,4.6,4.6,93,0.00,CLR,,0.00,0.0,WeatherDisplay:10.37,2013-04-26 02:02:00,
2013-04-26 03:07:00,38.2,36.4,30.00,NNW,337,4.6,4.6,93,0.00,CLR,,0.00,0.0,WeatherDisplay:10.37,2013-04-26 02:07:00,
2013-04-26 03:13:00,38.2,36.4,30.00,WNW,288,2.3,2.3,93,0.00,CLR,,0.00,0.0,WeatherDisplay:10.37,2013-04-26 02:13:00,
2013-04-26 03:18:00,38.2,36.6,30.00,NNW,337,2.3,2.3,94,0.00,CLR,,0.00,0.0,WeatherDisplay:10.37,2013-04-26 02:18:00,
2013-04-26 03:23:00,38.2,36.6,30.00,WNW,294,10.4,10.4,94,0.00,CLR,,0.00,0.0,WeatherDisplay:10.37,2013-04-26 02:23:00,
2013-04-26 03:28:00,38.3,36.7,30.00,SW,236,4.6,4.6,94,0.00,CLR,,0.00,0.0,WeatherDisplay:10.37,2013-04-26 02:28:00,
2013-04-26 03:33:00,38.3,36.7,30.00,North,354,3.5,3.5,94,0.00,CLR,,0.00,0.0,WeatherDisplay:10.37,2013-04-26 02:33:00,
2013-04-26 03:38:00,38.5,36.9,30.00,North,0,4.6,4.6,94,0.00,CLR,,0.00,0.0,WeatherDisplay:10.37,2013-04-26 02:38:00,
2013-04-26 03:44:00,38.3,36.7,30.00,WNW,285,2.3,2.3,94,0.00,CLR,,0.00,0.0,WeatherDisplay:10.37,2013-04-26 02:44:00,
2013-04-26 03:49:00,38.3,36.7,29.99,North,349,5.0,5.0,94,0.00,CLR,,0.00,0.0,WeatherDisplay:10.37,2013-04-26 02:49:00,
2013-04-26 03:54:00,38.2,36.6,30.00,NW,306,4.6,4.6,94,0.00,CLR,,0.00,0.0,WeatherDisplay:10.37,2013-04-26 02:54:00,
2013-04-26 03:59:00,38.2,36.6,29.99,NNW,330,3.5,3.5,94,0.00,CLR,,0.00,0.0,WeatherDisplay:10.37,2013-04-26 02:59:00,
2013-04-26 04:04:00,38.0,36.4,29.99,North,353,5.8,5.8,94,0.00,CLR,,0.00,0.0,WeatherDisplay:10.37,2013-04-26 03:04:00,
2013-04-26 04:09:00,38.2,36.6,29.99,NW,311,6.0,6.0,94,0.00,CLR,,0.00,0.0,WeatherDisplay:10.37,2013-04-26 03:09:00,
2013-04-26 04:14:00,38.9,37.6,30.00,NNW,329,11.5,11.5,95,0.01,RA,,0.01,0.0,WeatherDisplay:10.37,2013-04-26 03:14:00,
2013-04-26 04:19:00,39.3,37.7,29.99,NW,316,11.5,11.5,94,0.01,RA,,0.01,0.0,WeatherDisplay:10.37,2013-04-26 03:19:00,
2013-04-26 04:25:00,39.5,37.9,29.98,NW,312,4.6,4.6,94,0.01,CLR,,0.01,0.0,WeatherDisplay:10.37,2013-04-26 03:25:00,
2013-04-26 04:30:00,39.3,37.4,29.98,NW,320,3.5,0.0,93,0.01,CLR,,0.01,0.0,WeatherDisplay:10.37,2013-04-26 03:30:00,
2013-04-26 04:35:00,39.1,37.2,29.98,NNW,337,3.5,3.5,93,0.01,CLR,,0.01,0.0,WeatherDisplay:10.37,2013-04-26 03:35:00,
2013-04-26 04:40:00,38.8,36.9,29.98,NW,326,8.1,8.1,93,0.01,CLR,,0.01,0.0,WeatherDisplay:10.37,2013-04-26 03:40:00,
2013-04-26 04:45:00,38.6,36.8,29.98,WNW,292,5.8,5.8,93,0.01,CLR,,0.01,0.0,WeatherDisplay:10.37,2013-04-26 03:45:00,
2013-04-26 04:50:00,38.5,36.7,29.98,NW,315,3.5,3.5,93,0.01,CLR,,0.01,0.0,WeatherDisplay:10.37,2013-04-26 03:50:00,
2013-04-26 04:56:00,38.6,36.8,29.98,North,0,3.5,3.5,93,0.01,CLR,,0.01,0.0,WeatherDisplay:10.37,2013-04-26 03:56:00,
2013-04-26 05:01:00,38.8,36.9,29.98,NW,308,4.6,4.6,93,0.01,CLR,,0.01,0.0,WeatherDisplay:10.37,2013-04-26 04:01:00,
2013-04-26 05:04:00,38.9,37.0,29.98,NNW,344,3.5,3.5,93,0.01,CLR,,0.01,0.0,WeatherDisplay:10.37,2013-04-26 04:04:00,
2013-04-26 05:09:00,38.9,37.3,29.98,North,0,3.5,3.5,94,0.01,CLR,,0.01,0.0,WeatherDisplay:10.37,2013-04-26 04:09:00,
2013-04-26 05:14:00,38.9,37.3,29.98,WNW,296,3.5,3.5,94,0.00,CLR,,0.01,0.0,WeatherDisplay:10.37,2013-04-26 04:14:00,
2013-04-26 05:19:00,38.8,37.2,29.97,SW,224,3.5,3.5,94,0.00,OVC,,0.01,0.0,WeatherDisplay:10.37,2013-04-26 04:19:00,
2013-04-26 05:24:00,38.6,37.0,29.97,SW,229,2.3,2.3,94,0.00,OVC,,0.01,0.0,WeatherDisplay:10.37,2013-04-26 04:24:00,
2013-04-26 05:29:00,38.5,36.9,29.97,North,352,1.2,1.3,94,0.00,OVC,,0.01,0.0,WeatherDisplay:10.37,2013-04-26 04:29:00,
2013-04-26 05:34:00,38.3,36.7,29.97,WSW,239,2.3,2.3,94,0.00,OVC,,0.01,5.0,WeatherDisplay:10.37,2013-04-26 04:34:00,
2013-04-26 05:40:00,38.3,36.7,29.97,North,0,5.0,5.0,94,0.00,OVC,,0.01,5.0,WeatherDisplay:10.37,2013-04-26 04:40:00,
2013-04-26 05:45:00,38.5,37.2,29.98,WNW,295,2.0,6.0,95,0.00,OVC,,0.01,9.0,WeatherDisplay:10.37,2013-04-26 04:45:00,
2013-04-26 05:50:00,38.8,37.5,29.97,WNW,299,4.6,4.6,95,0.01,RA,,0.02,23.0,WeatherDisplay:10.37,2013-04-26 04:50:00,
2013-04-26 05:55:00,38.9,37.6,29.97,NW,320,10.4,10.4,95,0.02,RA,,0.03,12.0,WeatherDisplay:10.37,2013-04-26 04:55:00,
2013-04-26 06:00:00,38.8,37.5,29.97,NW,311,4.6,4.6,95,0.02,RA,,0.03,12.0,WeatherDisplay:10.37,2013-04-26 05:00:00,
2013-04-26 06:05:00,38.6,37.3,29.96,NNW,339,5.8,5.8,95,0.02,OVC,,0.03,12.0,WeatherDisplay:10.37,2013-04-26 05:05:00,
2013-04-26 06:11:00,38.3,37.0,29.96,North,352,3.5,3.5,95,0.02,OVC,,0.03,16.0,WeatherDisplay:10.37,2013-04-26 05:11:00,
2013-04-26 06:16:00,38.2,36.9,29.97,NW,308,5.0,5.0,95,0.02,OVC,,0.03,19.0,WeatherDisplay:10.37,2013-04-26 05:16:00,
2013-04-26 06:21:00,37.9,36.6,29.96,NNW,342,5.0,5.0,95,0.02,OVC,,0.03,21.0,WeatherDisplay:10.37,2013-04-26 05:21:00,
2013-04-26 06:26:00,37.9,36.9,29.96,NW,306,1.2,1.2,96,0.02,CLR,,0.03,25.0,WeatherDisplay:10.37,2013-04-26 05:26:00,
2013-04-26 06:31:00,37.8,36.5,29.96,NNW,332,3.5,3.5,95,0.02,CLR,,0.03,33.0,WeatherDisplay:10.37,2013-04-26 05:31:00,
2013-04-26 06:36:00,37.8,36.5,29.96,NNW,336,2.3,2.3,95,0.02,CLR,,0.03,35.0,WeatherDisplay:10.37,2013-04-26 05:36:00,
2013-04-26 06:42:00,37.8,36.5,29.96,WNW,282,1.2,1.2,95,0.02,CLR,,0.03,32.0,WeatherDisplay:10.37,2013-04-26 05:42:00,
2013-04-26 06:47:00,37.8,36.8,29.96,WNW,294,3.5,3.5,96,0.02,CLR,,0.03,69.0,WeatherDisplay:10.37,2013-04-26 05:47:00,
2013-04-26 06:52:00,37.9,36.9,29.96,WNW,294,1.2,1.2,96,0.01,CLR,,0.03,77.0,WeatherDisplay:10.37,2013-04-26 05:52:00,
2013-04-26 06:57:00,38.2,37.2,29.96,NNW,346,4.6,4.6,96,0.00,CLR,,0.03,88.0,WeatherDisplay:10.37,2013-04-26 05:57:00,
2013-04-26 07:02:00,38.5,37.5,29.95,North,0,2.3,2.3,96,0.00,CLR,,0.03,116.0,WeatherDisplay:10.37,2013-04-26 06:02:00,
2013-04-26 07:07:00,38.8,37.8,29.95,WNW,291,2.3,2.3,96,0.00,CLR,,0.03,120.0,WeatherDisplay:10.37,2013-04-26 06:07:00,
2013-04-26 07:12:00,39.1,38.1,29.95,North,356,5.8,5.8,96,0.00,CLR,,0.03,120.0,WeatherDisplay:10.37,2013-04-26 06:12:00,
2013-04-26 07:17:00,39.5,38.5,29.95,SW,224,4.6,4.6,96,0.00,CLR,,0.03,132.0,WeatherDisplay:10.37,2013-04-26 06:17:00,
2013-04-26 07:22:00,39.9,39.1,29.94,NNW,336,5.8,5.8,97,0.00,CLR,,0.03,143.0,WeatherDisplay:10.37,2013-04-26 06:22:00,
2013-04-26 07:28:00,40.3,39.5,29.94,NNW,337,8.1,8.1,97,0.00,CLR,,0.03,185.0,WeatherDisplay:10.37,2013-04-26 06:28:00,
2013-04-26 07:33:00,40.8,39.7,29.94,NW,315,3.5,3.5,96,0.00,CLR,,0.03,169.0,WeatherDisplay:10.37,2013-04-26 06:33:00,
2013-04-26 07:38:00,41.2,40.1,29.95,NNW,342,5.8,5.8,96,0.00,SCT,,0.03,86.0,WeatherDisplay:10.37,2013-04-26 06:38:00,
2013-04-26 07:43:00,41.2,40.1,29.94,North,357,2.3,2.3,96,0.00,FEW,,0.03,134.0,WeatherDisplay:10.37,2013-04-26 06:43:00,
2013-04-26 07:48:00,41.5,40.2,29.95,NNW,333,10.0,10.0,95,0.00,CLR,,0.03,67.0,WeatherDisplay:10.37,2013-04-26 06:48:00,
2013-04-26 07:53:00,41.3,39.4,29.95,NNW,339,6.9,6.9,93,0.01,RA,,0.04,35.0,WeatherDisplay:10.37,2013-04-26 06:53:00,
2013-04-26 07:59:00,40.9,38.8,29.94,NW,322,11.5,11.5,92,0.01,RA,,0.05,81.0,WeatherDisplay:10.37,2013-04-26 06:59:00,
2013-04-26 08:04:00,40.6,38.7,29.94,NW,323,6.9,6.9,93,0.02,RA,,0.05,121.0,WeatherDisplay:10.37,2013-04-26 07:04:00,
2013-04-26 08:09:00,40.6,38.7,29.94,North,353,4.6,4.6,93,0.02,SCT,,0.05,125.0,WeatherDisplay:10.37,2013-04-26 07:09:00,
2013-04-26 08:14:00,40.9,39.3,29.94,NW,322,3.5,3.5,94,0.02,CLR,,0.05,246.0,WeatherDisplay:10.37,2013-04-26 07:14:00,
2013-04-26 08:19:00,41.3,39.7,29.94,NW,319,3.5,3.5,94,0.02,BKN,,0.05,84.0,WeatherDisplay:10.37,2013-04-26 07:19:00,
2013-04-26 08:24:00,41.5,40.2,29.93,NW,315,4.6,4.6,95,0.02,OVC,,0.05,76.0,WeatherDisplay:10.37,2013-04-26 07:24:00,
2013-04-26 08:29:00,41.5,40.2,29.93,North,349,4.0,4.0,95,0.02,OVC,,0.05,69.0,WeatherDisplay:10.37,2013-04-26 07:29:00,
2013-04-26 08:34:00,41.6,40.3,29.93,NW,309,3.5,3.5,95,0.02,CLR,,0.05,253.0,WeatherDisplay:10.37,2013-04-26 07:34:00,
2013-04-26 08:39:00,42.5,41.2,29.92,NW,320,6.9,6.9,95,0.02,CLR,,0.05,350.0,WeatherDisplay:10.37,2013-04-26 07:39:00,
2013-04-26 08:45:00,43.1,41.2,29.92,WNW,301,10.4,10.4,93,0.02,CLR,,0.05,421.0,WeatherDisplay:10.37,2013-04-26 07:45:00,
2013-04-26 08:50:00,43.8,41.6,29.92,WNW,298,3.5,3.5,92,0.02,CLR,,0.05,457.0,WeatherDisplay:10.37,2013-04-26 07:50:00,
2013-04-26 08:55:00,43.9,41.2,29.92,NW,311,2.3,2.3,90,0.01,BKN,,0.05,120.0,WeatherDisplay:10.37,2013-04-26 07:55:00,
2013-04-26 09:00:00,43.6,40.6,29.92,NW,315,3.0,13.0,89,0.00,OVC,,0.05,32.0,WeatherDisplay:10.37,2013-04-26 08:00:00,
2013-04-26 09:05:00,43.2,40.2,29.92,ESE,102,8.1,8.1,89,0.00,OVC,,0.06,32.0,WeatherDisplay:10.37,2013-04-26 08:05:00,
2013-04-26 09:10:00,42.5,39.8,29.93,NW,316,11.5,11.5,90,0.01,RA,,0.06,55.0,WeatherDisplay:10.37,2013-04-26 08:10:00,
2013-04-26 09:15:00,41.5,38.8,29.93,West,278,8.1,8.1,90,0.02,RA,,0.07,114.0,WeatherDisplay:10.37,2013-04-26 08:15:00,
2013-04-26 09:20:00,40.8,38.7,29.93,NW,306,11.5,11.5,92,0.02,RA,,0.08,58.0,WeatherDisplay:10.37,2013-04-26 08:20:00,
2013-04-26 09:26:00,40.2,38.1,29.92,North,350,6.9,6.9,92,0.03,RA,,0.08,134.0,WeatherDisplay:10.37,2013-04-26 08:26:00,
2013-04-26 09:31:00,39.8,38.2,29.91,NW,326,4.6,4.6,94,0.04,RA,,0.09,164.0,WeatherDisplay:10.37,2013-04-26 08:31:00,
2013-04-26 09:36:00,40.8,40.0,29.91,WSW,258,10.4,10.4,97,0.04,RA,,0.09,498.0,WeatherDisplay:10.37,2013-04-26 08:36:00,
2013-04-26 09:41:00,41.8,41.3,29.91,NNW,329,3.5,3.5,98,0.04,CLR,,0.09,487.0,WeatherDisplay:10.37,2013-04-26 08:41:00,
2013-04-26 09:46:00,42.6,42.1,29.91,NNW,342,3.5,3.5,98,0.04,CLR,,0.09,292.0,WeatherDisplay:10.37,2013-04-26 08:46:00,
2013-04-26 09:51:00,43.2,42.9,29.91,West,277,2.0,2.0,99,0.04,CLR,,0.09,517.0,WeatherDisplay:10.37,2013-04-26 08:51:00,
2013-04-26 09:56:00,43.5,42.7,29.91,WNW,295,4.6,4.6,97,0.04,CLR,,0.09,503.0,WeatherDisplay:10.37,2013-04-26 08:56:00,
2013-04-26 10:02:00,44.3,43.5,29.91,SW,232,5.8,5.8,97,0.04,CLR,,0.09,572.0,WeatherDisplay:10.37,2013-04-26 09:02:00,
2013-04-26 10:07:00,44.3,43.2,29.90,NW,312,5.8,5.8,96,0.03,CLR,,0.09,760.0,WeatherDisplay:10.37,2013-04-26 09:07:00,
2013-04-26 10:12:00,44.6,43.0,29.90,NNW,328,5.8,5.8,94,0.02,BKN,,0.09,176.0,WeatherDisplay:10.37,2013-04-26 09:12:00,
2013-04-26 10:17:00,44.5,42.6,29.90,North,357,11.5,11.5,93,0.02,OVC,,0.09,162.0,WeatherDisplay:10.37,2013-04-26 09:17:00,
2013-04-26 10:22:00,44.8,42.9,29.91,NW,313,6.0,6.0,93,0.01,OVC,,0.09,187.0,WeatherDisplay:10.37,2013-04-26 09:22:00,
2013-04-26 10:27:00,45.2,42.7,29.90,NNW,346,8.1,8.1,91,0.00,CLR,,0.09,644.0,WeatherDisplay:10.37,2013-04-26 09:27:00,
2013-04-26 10:32:00,45.7,42.6,29.90,WNW,292,5.8,5.8,89,0.00,CLR,,0.09,644.0,WeatherDisplay:10.37,2013-04-26 09:32:00,
2013-04-26 10:38:00,46.2,42.8,29.90,NNW,329,8.1,8.1,88,0.00,CLR,,0.09,688.0,WeatherDisplay:10.37,2013-04-26 09:38:00,
2013-04-26 10:43:00,46.1,41.8,29.90,NNW,347,10.0,10.0,85,0.00,CLR,,0.09,656.0,WeatherDisplay:10.37,2013-04-26 09:43:00,
2013-04-26 10:48:00,47.0,42.7,29.90,SW,226,5.8,5.8,85,0.00,CLR,,0.09,700.0,WeatherDisplay:10.37,2013-04-26 09:48:00,
2013-04-26 10:53:00,47.0,43.0,29.90,NW,311,5.0,5.0,86,0.00,CLR,,0.09,713.0,WeatherDisplay:10.37,2013-04-26 09:53:00,
2013-04-26 10:58:00,47.3,43.3,29.90,South,182,11.5,11.5,86,0.00,OVC,,0.09,252.0,WeatherDisplay:10.37,2013-04-26 09:58:00,
2013-04-26 11:03:00,46.4,41.8,29.90,NNW,342,11.5,11.5,84,0.00,BKN,,0.09,243.0,WeatherDisplay:10.37,2013-04-26 10:03:00,
2013-04-26 11:08:00,46.8,42.2,29.90,NW,309,11.5,11.5,84,0.00,BKN,,0.09,243.0,WeatherDisplay:10.37,2013-04-26 10:08:00,
2013-04-26 11:13:00,47.4,42.2,29.89,North,349,4.0,4.0,82,0.00,OVC,,0.09,176.0,WeatherDisplay:10.37,2013-04-26 10:13:00,
2013-04-26 11:18:00,47.0,40.8,29.89,NW,306,11.0,11.0,79,0.00,OVC,,0.09,176.0,WeatherDisplay:10.37,2013-04-26 10:18:00,
2013-04-26 11:23:00,47.0,41.1,29.89,NNW,342,5.8,5.8,80,0.00,BKN,,0.09,317.0,WeatherDisplay:10.37,2013-04-26 10:23:00,
2013-04-26 11:29:00,47.0,40.8,29.89,WNW,302,3.5,3.5,79,0.00,SCT,,0.09,421.0,WeatherDisplay:10.37,2013-04-26 10:29:00,
2013-04-26 11:34:00,47.1,40.9,29.89,WNW,294,7.0,7.0,79,0.00,OVC,,0.09,183.0,WeatherDisplay:10.37,2013-04-26 10:34:00,
2013-04-26 11:39:00,46.8,40.3,29.89,NNW,329,13.8,13.8,78,0.00,OVC,,0.09,144.0,WeatherDisplay:10.37,2013-04-26 10:39:00,
2013-04-26 11:44:00,46.5,40.0,29.89,NNW,329,20.7,20.7,78,0.00,OVC,,0.09,74.0,WeatherDisplay:10.37,2013-04-26 10:44:00,
2013-04-26 11:49:00,45.1,39.9,29.90,East,88,13.8,13.8,82,0.00,OVC,,0.09,58.0,WeatherDisplay:10.37,2013-04-26 10:49:00,
2013-04-26 11:54:00,43.6,39.7,29.91,NNW,330,12.7,12.7,86,0.01,RA,,0.10,46.0,WeatherDisplay:10.37,2013-04-26 10:54:00,
2013-04-26 11:59:00,42.5,39.5,29.90,NNW,328,8.1,8.1,89,0.02,RA,,0.11,65.0,WeatherDisplay:10.37,2013-04-26 10:59:00,
2013-04-26 12:04:00,41.9,39.2,29.90,NW,313,5.8,5.8,90,0.02,RA,,0.11,74.0,WeatherDisplay:10.37,2013-04-26 11:04:00,
2013-04-26 12:09:00,41.6,40.0,29.90,NNW,340,5.8,5.8,94,0.02,OVC,,0.11,709.0,WeatherDisplay:10.37,2013-04-26 11:09:00,
2013-04-26 12:14:00,43.1,42.3,29.90,NW,315,3.5,3.5,97,0.02,CLR,,0.11,702.0,WeatherDisplay:10.37,2013-04-26 11:14:00,
2013-04-26 12:19:00,44.1,43.0,29.89,NW,308,8.1,8.1,96,0.02,CLR,,0.11,706.0,WeatherDisplay:10.37,2013-04-26 11:19:00,
2013-04-26 12:25:00,45.5,44.4,29.89,WNW,291,8.1,8.1,96,0.02,CLR,,0.11,716.0,WeatherDisplay:10.37,2013-04-26 11:25:00,
2013-04-26 12:30:00,46.5,44.9,29.89,NNW,337,11.5,11.5,94,0.02,CLR,,0.11,866.0,WeatherDisplay:10.37,2013-04-26 11:30:00,
2013-04-26 12:35:00,47.7,45.8,29.89,NNW,342,13.8,13.8,93,0.02,CLR,,0.11,906.0,WeatherDisplay:10.37,2013-04-26 11:35:00,
2013-04-26 12:40:00,47.6,43.6,29.89,NNW,342,14.0,14.0,86,0.02,OVC,,0.11,118.0,WeatherDisplay:10.37,2013-04-26 11:40:00,
2013-04-26 12:45:00,47.3,43.0,29.89,NW,309,11.5,11.5,85,0.02,CLR,,0.11,776.0,WeatherDisplay:10.37,2013-04-26 11:45:00,
2013-04-26 12:50:00,48.0,44.0,29.88,North,349,12.7,12.7,86,0.02,CLR,,0.11,769.0,WeatherDisplay:10.37,2013-04-26 11:50:00,
2013-04-26 12:55:00,48.3,43.4,29.88,NNW,340,11.5,11.5,83,0.01,CLR,,0.11,790.0,WeatherDisplay:10.37,2013-04-26 11:55:00,
2013-04-26 13:00:00,49.2,43.3,29.88,North,357,11.5,11.5,80,0.00,CLR,,0.11,901.0,WeatherDisplay:10.37,2013-04-26 12:00:00,
2013-04-26 13:05:00,49.5,43.6,29.88,NNW,329,12.7,12.7,80,0.00,SCT,,0.11,473.0,WeatherDisplay:10.37,2013-04-26 12:05:00,
2013-04-26 13:11:00,47.9,42.7,29.88,NNW,343,12.7,12.7,82,0.00,OVC,,0.11,109.0,WeatherDisplay:10.37,2013-04-26 12:11:00,
2013-04-26 13:16:00,46.7,42.4,29.88,NNW,343,10.4,10.4,85,0.00,OVC,,0.11,137.0,WeatherDisplay:10.37,2013-04-26 12:16:00,
2013-04-26 13:21:00,47.6,44.5,29.88,SSE,152,6.9,6.9,89,0.00,CLR,,0.11,924.0,WeatherDisplay:10.37,2013-04-26 12:21:00,
2013-04-26 13:26:00,47.9,43.6,29.88,NNW,330,14.0,14.0,85,0.00,OVC,,0.11,128.0,WeatherDisplay:10.37,2013-04-26 12:26:00,
2013-04-26 13:31:00,47.1,42.5,29.88,NNW,340,12.7,12.7,84,0.00,CLR,,0.11,781.0,WeatherDisplay:10.37,2013-04-26 12:31:00,
2013-04-26 13:36:00,48.5,43.9,29.88,NW,313,8.1,8.1,84,0.00,CLR,,0.11,823.0,WeatherDisplay:10.37,2013-04-26 12:36:00,
2013-04-26 13:41:00,49.1,42.9,29.88,NNW,333,12.7,12.7,79,0.00,CLR,,0.11,977.0,WeatherDisplay:10.37,2013-04-26 12:41:00,
2013-04-26 13:47:00,50.2,43.3,29.88,NNW,342,18.4,18.4,77,0.00,SCT,,0.11,598.0,WeatherDisplay:10.37,2013-04-26 12:47:00,
2013-04-26 13:52:00,49.9,41.6,29.88,NNW,337,18.4,18.4,73,0.00,BKN,,0.11,315.0,WeatherDisplay:10.37,2013-04-26 12:52:00,
2013-04-26 13:57:00,49.2,40.9,29.87,North,349,13.8,13.8,73,0.00,OVC,,0.11,294.0,WeatherDisplay:10.37,2013-04-26 12:57:00,
2013-04-26 14:02:00,49.2,40.9,29.88,NNW,346,13.8,13.8,73,0.00,OVC,,0.11,225.0,WeatherDisplay:10.37,2013-04-26 13:02:00,
2013-04-26 14:07:00,49.4,41.1,29.88,NNW,347,17.3,17.3,73,0.00,OVC,,0.11,229.0,WeatherDisplay:10.37,2013-04-26 13:07:00,
2013-04-26 14:12:00,49.6,40.6,29.87,ESE,114,13.8,13.8,71,0.00,BKN,,0.11,385.0,WeatherDisplay:10.37,2013-04-26 13:12:00,
2013-04-26 14:17:00,48.8,41.2,29.88,North,353,18.4,18.4,75,0.00,BKN,,0.11,317.0,WeatherDisplay:10.37,2013-04-26 13:17:00,
2013-04-26 14:22:00,47.3,41.4,29.88,NNW,329,15.0,15.0,80,0.00,BKN,,0.11,401.0,WeatherDisplay:10.37,2013-04-26 13:22:00,
2013-04-26 14:28:00,46.4,40.6,29.88,NNW,339,15.0,15.0,80,0.00,OVC,,0.11,274.0,WeatherDisplay:10.37,2013-04-26 13:28:00,
2013-04-26 14:33:00,46.4,40.9,29.88,NNW,335,11.5,11.5,81,0.00,SCT,,0.11,739.0,WeatherDisplay:10.37,2013-04-26 13:33:00,
2013-04-26 14:38:00,47.4,40.9,29.88,NNW,328,13.8,13.8,78,0.00,CLR,,0.11,801.0,WeatherDisplay:10.37,2013-04-26 13:38:00,
2013-04-26 14:43:00,48.2,41.3,29.88,North,353,12.7,12.7,77,0.00,CLR,,0.11,762.0,WeatherDisplay:10.37,2013-04-26 13:43:00,
2013-04-26 14:48:00,49.4,42.1,29.88,NNW,329,9.2,9.2,76,0.00,CLR,,0.11,797.0,WeatherDisplay:10.37,2013-04-26 13:48:00,
2013-04-26 14:53:00,49.8,42.9,29.87,NNW,344,13.8,13.8,77,0.00,CLR,,0.11,822.0,WeatherDisplay:10.37,2013-04-26 13:53:00,
2013-04-26 14:58:00,50.5,42.9,29.87,North,354,19.6,19.6,75,0.00,CLR,,0.11,885.0,WeatherDisplay:10.37,2013-04-26 13:58:00,
2013-04-26 15:03:00,51.0,43.7,29.88,North,352,11.5,11.5,76,0.00,CLR,,0.11,790.0,WeatherDisplay:10.37,2013-04-26 14:03:00,
2013-04-26 15:08:00,50.1,41.4,29.88,NNW,332,17.3,17.3,72,0.00,OVC,,0.11,172.0,WeatherDisplay:10.37,2013-04-26 14:08:00,
2013-04-26 15:14:00,50.1,41.8,29.87,NW,326,18.4,18.4,73,0.00,CLR,,0.11,720.0,WeatherDisplay:10.37,2013-04-26 14:14:00,
2013-04-26 15:19:00,50.4,41.7,29.87,North,350,16.1,16.1,72,0.00,CLR,,0.11,743.0,WeatherDisplay:10.37,2013-04-26 14:19:00,
2013-04-26 15:24:00,49.9,41.2,29.87,NNW,332,17.3,17.3,72,0.00,CLR,,0.11,743.0,WeatherDisplay:10.37,2013-04-26 14:24:00,
2013-04-26 15:29:00,50.1,41.1,29.87,North,357,13.8,13.8,71,0.00,CLR,,0.11,743.0,WeatherDisplay:10.37,2013-04-26 14:29:00,
2013-04-26 15:34:00,50.7,41.6,29.87,NW,316,19.6,19.6,71,0.00,CLR,,0.11,713.0,WeatherDisplay:10.37,2013-04-26 14:34:00,
2013-04-26 15:39:00,50.5,40.7,29.87,NW,320,16.1,16.1,69,0.00,CLR,,0.11,704.0,WeatherDisplay:10.37,2013-04-26 14:39:00,
2013-04-26 15:44:00,51.6,41.8,29.87,NNW,336,5.8,6.1,69,0.00,CLR,,0.11,762.0,WeatherDisplay:10.37,2013-04-26 14:44:00,
2013-04-26 15:49:00,51.1,41.3,29.87,ESE,107,17.3,17.3,69,0.00,CLR,,0.11,757.0,WeatherDisplay:10.37,2013-04-26 14:49:00,
2013-04-26 15:55:00,51.7,42.2,29.87,NNW,335,13.8,13.8,70,0.00,CLR,,0.11,760.0,WeatherDisplay:10.37,2013-04-26 14:55:00,
2013-04-26 16:00:00,51.4,40.4,29.87,WNW,298,17.3,17.3,66,0.00,CLR,,0.11,721.0,WeatherDisplay:10.37,2013-04-26 15:00:00,
2013-04-26 16:05:00,51.9,41.3,29.86,NNW,342,11.5,11.5,67,0.00,CLR,,0.11,751.0,WeatherDisplay:10.37,2013-04-26 15:05:00,
2013-04-26 16:10:00,52.0,41.8,29.87,NNW,343,12.7,12.7,68,0.00,CLR,,0.11,735.0,WeatherDisplay:10.37,2013-04-26 15:10:00,
2013-04-26 16:15:00,52.3,41.3,29.87,NNW,337,15.0,15.0,66,0.00,CLR,,0.11,832.0,WeatherDisplay:10.37,2013-04-26 15:15:00,
2013-04-26 16:20:00,53.1,42.8,29.87,NNW,340,13.8,13.8,68,0.00,CLR,,0.11,818.0,WeatherDisplay:10.37,2013-04-26 15:20:00,
2013-04-26 16:25:00,52.5,41.9,29.87,NNW,344,17.3,17.3,67,0.00,CLR,,0.11,855.0,WeatherDisplay:10.37,2013-04-26 15:25:00,
2013-04-26 16:30:00,51.4,41.2,29.87,NW,323,13.8,13.8,68,0.00,BKN,,0.11,267.0,WeatherDisplay:10.37,2013-04-26 15:30:00,
2013-04-26 16:36:00,50.5,41.4,29.87,North,352,11.5,11.5,71,0.00,OVC,,0.11,185.0,WeatherDisplay:10.37,2013-04-26 15:36:00,
2013-04-26 16:41:00,49.8,40.0,29.88,NNW,332,11.5,11.5,69,0.00,OVC,,0.11,84.0,WeatherDisplay:10.37,2013-04-26 15:41:00,
2013-04-26 16:46:00,49.1,39.7,29.88,North,352,19.6,19.6,70,0.00,OVC,,0.11,90.0,WeatherDisplay:10.37,2013-04-26 15:46:00,
2013-04-26 16:51:00,47.4,39.9,29.89,North,357,12.7,12.7,75,0.00,OVC,,0.11,164.0,WeatherDisplay:10.37,2013-04-26 15:51:00,
2013-04-26 16:56:00,46.4,40.9,29.88,North,350,4.6,4.6,81,0.00,BKN,,0.11,241.0,WeatherDisplay:10.37,2013-04-26 15:56:00,
2013-04-26 17:01:00,47.6,43.6,29.88,North,349,2.3,2.4,86,0.00,CLR,,0.11,656.0,WeatherDisplay:10.37,2013-04-26 16:01:00,
2013-04-26 17:06:00,48.3,42.7,29.88,North,354,6.0,6.0,81,0.00,CLR,,0.11,670.0,WeatherDisplay:10.37,2013-04-26 16:06:00,
2013-04-26 17:11:00,48.9,42.7,29.88,ESE,102,5.0,5.0,79,0.00,CLR,,0.11,683.0,WeatherDisplay:10.37,2013-04-26 16:11:00,
2013-04-26 17:17:00,49.8,43.2,29.87,SSE,157,5.0,5.0,78,0.00,CLR,,0.11,611.0,WeatherDisplay:10.37,2013-04-26 16:17:00,
2013-04-26 17:22:00,50.7,44.1,29.87,NNW,335,5.0,5.0,78,0.00,SCT,,0.11,359.0,WeatherDisplay:10.37,2013-04-26 16:22:00,
2013-04-26 17:27:00,51.1,43.1,29.88,North,356,10.4,10.4,74,0.00,OVC,,0.11,157.0,WeatherDisplay:10.37,2013-04-26 16:27:00,
2013-04-26 17:32:00,50.4,42.1,29.88,North,354,11.5,11.5,73,0.00,OVC,,0.11,44.0,WeatherDisplay:10.37,2013-04-26 16:32:00,
2013-04-26 17:37:00,49.4,41.5,29.89,SSE,151,11.5,11.5,74,0.00,OVC,,0.11,28.0,WeatherDisplay:10.37,2013-04-26 16:37:00,
2013-04-26 17:42:00,47.6,40.7,29.90,NNW,344,9.2,9.2,77,0.01,RA,,0.12,14.0,WeatherDisplay:10.37,2013-04-26 16:42:00,
2013-04-26 17:48:00,45.5,39.7,29.90,North,359,8.1,8.1,80,0.02,RA,,0.13,35.0,WeatherDisplay:10.37,2013-04-26 16:48:00,
2013-04-26 17:53:00,44.6,39.1,29.89,North,350,12.7,12.7,81,0.02,RA,,0.13,81.0,WeatherDisplay:10.37,2013-04-26 16:53:00,
2013-04-26 17:58:00,44.8,39.0,29.89,North,349,3.5,3.5,80,0.02,OVC,,0.13,95.0,WeatherDisplay:10.37,2013-04-26 16:58:00,
2013-04-26 18:03:00,45.5,39.7,29.89,North,354,6.0,6.0,80,0.02,FEW,,0.13,370.0,WeatherDisplay:10.37,2013-04-26 17:03:00,
2013-04-26 18:08:00,46.5,39.7,29.89,ESE,116,8.0,8.0,77,0.02,CLR,,0.13,81.0,WeatherDisplay:10.37,2013-04-26 17:08:00,
2013-04-26 18:13:00,46.4,39.6,29.90,NNW,346,6.9,6.9,77,0.02,OVC,,0.13,86.0,WeatherDisplay:10.37,2013-04-26 17:13:00,
2013-04-26 18:18:00,46.1,39.3,29.90,North,356,11.5,11.5,77,0.02,OVC,,0.13,74.0,WeatherDisplay:10.37,2013-04-26 17:18:00,
2013-04-26 18:23:00,45.7,39.2,29.90,NW,319,8.1,8.1,78,0.02,OVC,,0.13,69.0,WeatherDisplay:10.37,2013-04-26 17:23:00,
2013-04-26 18:29:00,45.7,39.9,29.90,NNW,347,6.9,6.9,80,0.02,OVC,,0.13,88.0,WeatherDisplay:10.37,2013-04-26 17:29:00,
2013-04-26 18:34:00,45.5,39.7,29.91,North,349,8.1,8.1,80,0.02,OVC,,0.13,53.0,WeatherDisplay:10.37,2013-04-26 17:34:00,
2013-04-26 18:39:00,45.5,40.0,29.91,NNW,347,8.1,8.1,81,0.02,OVC,,0.13,35.0,WeatherDisplay:10.37,2013-04-26 17:39:00,
2013-04-26 18:44:00,45.4,39.9,29.91,NNW,347,9.2,9.2,81,0.01,OVC,,0.13,21.0,WeatherDisplay:10.37,2013-04-26 17:44:00,
2013-04-26 18:49:00,45.2,40.0,29.91,NNW,344,6.0,6.0,82,0.00,OVC,,0.13,16.0,WeatherDisplay:10.37,2013-04-26 17:49:00,
2013-04-26 18:54:00,45.1,39.9,29.91,NNW,336,11.5,11.5,82,0.00,OVC,,0.13,16.0,WeatherDisplay:10.37,2013-04-26 17:54:00,
2013-04-26 18:59:00,44.6,39.4,29.91,East,95,7.0,7.0,82,0.00,OVC,,0.13,12.0,WeatherDisplay:10.37,2013-04-26 17:59:00,
2013-04-26 19:04:00,44.5,39.3,29.91,NNW,347,3.5,3.5,82,0.00,OVC,,0.13,16.0,WeatherDisplay:10.37,2013-04-26 18:04:00,
2013-04-26 19:09:00,44.3,39.5,29.91,NW,312,5.8,5.8,83,0.00,OVC,,0.13,25.0,WeatherDisplay:10.37,2013-04-26 18:09:00,
2013-04-26 19:14:00,44.3,39.5,29.91,NNW,328,6.9,6.9,83,0.00,OVC,,0.13,53.0,WeatherDisplay:10.37,2013-04-26 18:14:00,
2013-04-26 19:19:00,44.2,39.4,29.91,NNW,343,4.6,4.6,83,0.00,OVC,,0.13,46.0,WeatherDisplay:10.37,2013-04-26 18:19:00,
2013-04-26 19:25:00,44.1,39.3,29.92,North,359,8.1,8.1,83,0.00,OVC,,0.13,37.0,WeatherDisplay:10.37,2013-04-26 18:25:00,
2013-04-26 19:30:00,43.9,39.1,29.92,NNW,343,6.9,6.9,83,0.00,OVC,,0.13,26.0,WeatherDisplay:10.37,2013-04-26 18:30:00,
2013-04-26 19:35:00,43.8,39.3,29.92,NW,323,2.3,2.3,84,0.00,OVC,,0.13,23.0,WeatherDisplay:10.37,2013-04-26 18:35:00,
2013-04-26 19:40:00,43.6,39.4,29.93,NNW,329,4.6,4.6,85,0.00,OVC,,0.13,23.0,WeatherDisplay:10.37,2013-04-26 18:40:00,
2013-04-26 19:45:00,43.2,39.0,29.93,North,352,6.9,6.9,85,0.00,OVC,,0.13,28.0,WeatherDisplay:10.37,2013-04-26 18:45:00,
2013-04-26 19:50:00,42.9,39.0,29.93,NNW,347,6.0,6.0,86,0.00,OVC,,0.13,44.0,WeatherDisplay:10.37,2013-04-26 18:50:00,
2013-04-26 19:56:00,42.8,39.2,29.92,North,352,3.5,3.5,87,0.00,BKN,,0.13,48.0,WeatherDisplay:10.37,2013-04-26 18:56:00,
2013-04-26 20:01:00,42.8,39.2,29.93,NNW,339,3.5,3.5,87,0.00,CLR,,0.13,106.0,WeatherDisplay:10.37,2013-04-26 19:01:00,
2013-04-26 20:06:00,42.8,39.5,29.93,NNW,329,5.8,5.8,88,0.00,SCT,,0.13,77.0,WeatherDisplay:10.37,2013-04-26 19:06:00,
2013-04-26 20:11:00,42.9,39.9,29.93,North,353,8.1,8.1,89,0.00,CLR,,0.13,88.0,WeatherDisplay:10.37,2013-04-26 19:11:00,
2013-04-26 20:16:00,42.9,39.9,29.93,North,349,9.2,9.2,89,0.00,CLR,,0.13,77.0,WeatherDisplay:10.37,2013-04-26 19:16:00,
2013-04-26 20:22:00,42.9,39.9,29.94,North,359,10.4,10.4,89,0.00,CLR,,0.13,72.0,WeatherDisplay:10.37,2013-04-26 19:22:00,
2013-04-26 20:27:00,42.9,39.9,29.94,NNW,343,10.4,10.4,89,0.00,FEW,,0.13,49.0,WeatherDisplay:10.37,2013-04-26 19:27:00,
2013-04-26 20:32:00,42.9,40.2,29.94,North,356,4.6,4.6,90,0.00,BKN,,0.13,25.0,WeatherDisplay:10.37,2013-04-26 19:32:00,
2013-04-26 20:37:00,42.9,40.2,29.94,NNW,337,4.6,4.6,90,0.00,BKN,,0.13,18.0,WeatherDisplay:10.37,2013-04-26 19:37:00,
2013-04-26 20:42:00,42.9,40.2,29.94,NNW,340,6.0,6.0,90,0.00,BKN,,0.13,16.0,WeatherDisplay:10.37,2013-04-26 19:42:00,
2013-04-26 20:47:00,42.8,40.1,29.94,NNW,339,3.5,3.5,90,0.00,BKN,,0.13,14.0,WeatherDisplay:10.37,2013-04-26 19:47:00,
2013-04-26 20:52:00,42.8,40.4,29.95,NNW,339,5.0,5.0,91,0.00,BKN,,0.13,9.0,WeatherDisplay:10.37,2013-04-26 19:52:00,
2013-04-26 20:57:00,42.8,40.4,29.95,NNW,346,5.8,5.8,91,0.00,OVC,,0.13,5.0,WeatherDisplay:10.37,2013-04-26 19:57:00,
2013-04-26 21:03:00,42.8,40.1,29.95,North,0,9.2,9.2,90,0.00,CLR,,0.13,0.0,WeatherDisplay:10.37,2013-04-26 20:03:00,
2013-04-26 21:08:00,42.8,40.1,29.95,NW,322,10.4,10.4,90,0.01,RA,,0.14,0.0,WeatherDisplay:10.37,2013-04-26 20:08:00,
2013-04-26 21:13:00,42.8,40.1,29.95,North,353,4.6,4.6,90,0.01,RA,,0.14,0.0,WeatherDisplay:10.37,2013-04-26 20:13:00,
2013-04-26 21:18:00,42.5,39.8,29.95,North,356,2.0,2.0,90,0.01,,,0.14,0.0,WeatherDisplay:10.37,2013-04-26 20:18:00,
2013-04-26 21:24:00,42.2,39.5,29.96,North,354,5.8,5.8,90,0.01,CLR,,0.14,0.0,WeatherDisplay:10.37,2013-04-26 20:24:00,
2013-04-26 21:29:00,41.9,39.2,29.96,NNW,339,7.0,7.0,90,0.01,CLR,,0.14,0.0,WeatherDisplay:10.37,2013-04-26 20:29:00,
2013-04-26 21:34:00,41.8,39.1,29.96,NNW,329,1.2,1.2,90,0.01,CLR,,0.14,0.0,WeatherDisplay:10.37,2013-04-26 20:34:00,
2013-04-26 21:39:00,41.6,38.9,29.96,NNW,329,4.6,4.6,90,0.01,CLR,,0.14,0.0,WeatherDisplay:10.37,2013-04-26 20:39:00,
2013-04-26 21:44:00,41.5,39.1,29.97,NNW,333,1.2,1.2,91,0.01,CLR,,0.14,0.0,WeatherDisplay:10.37,2013-04-26 20:44:00,
2013-04-26 21:49:00,41.5,39.1,29.97,NNW,333,2.0,2.0,91,0.01,CLR,,0.14,0.0,WeatherDisplay:10.37,2013-04-26 20:49:00,
2013-04-26 21:54:00,41.3,38.9,29.97,NNW,330,3.5,3.5,91,0.01,CLR,,0.14,0.0,WeatherDisplay:10.37,2013-04-26 20:54:00,
2013-04-26 22:00:00,41.3,38.9,29.97,NNW,339,0.0,0.0,91,0.01,CLR,,0.14,0.0,WeatherDisplay:10.37,2013-04-26 21:00:00,
2013-04-26 22:05:00,41.3,38.9,29.98,NNW,335,2.3,2.3,91,0.01,CLR,,0.14,0.0,WeatherDisplay:10.37,2013-04-26 21:05:00,
2013-04-26 22:10:00,41.3,38.9,29.98,NNW,332,2.3,2.3,91,0.00,CLR,,0.14,0.0,WeatherDisplay:10.37,2013-04-26 21:10:00,
2013-04-26 22:15:00,41.3,38.9,29.98,NNW,339,0.0,5.0,91,0.00,CLR,,0.14,0.0,WeatherDisplay:10.37,2013-04-26 21:15:00,
2013-04-26 22:20:00,41.5,39.3,29.98,North,350,3.5,3.5,92,0.00,CLR,,0.14,0.0,WeatherDisplay:10.37,2013-04-26 21:20:00,
2013-04-26 22:25:00,41.5,39.3,29.98,North,350,6.9,6.9,92,0.00,CLR,,0.14,0.0,WeatherDisplay:10.37,2013-04-26 21:25:00,
2013-04-26 22:30:00,41.6,39.4,29.99,NNW,338,2.0,7.0,92,0.00,CLR,,0.14,0.0,WeatherDisplay:10.37,2013-04-26 21:30:00,
2013-04-26 22:35:00,41.8,39.6,29.99,North,350,5.8,5.8,92,0.00,CLR,,0.14,0.0,WeatherDisplay:10.37,2013-04-26 21:35:00,
2013-04-26 22:40:00,41.9,39.7,29.99,North,357,3.5,3.5,92,0.00,CLR,,0.14,0.0,WeatherDisplay:10.37,2013-04-26 21:40:00,
2013-04-26 22:46:00,41.9,39.7,29.99,North,357,5.8,5.8,92,0.00,CLR,,0.14,0.0,WeatherDisplay:10.37,2013-04-26 21:46:00,
2013-04-26 22:51:00,41.9,39.7,29.99,North,357,3.5,3.5,92,0.00,CLR,,0.14,0.0,WeatherDisplay:10.37,2013-04-26 21:51:00,
2013-04-26 22:56:00,41.8,39.6,29.99,NNW,340,3.5,3.5,92,0.00,CLR,,0.14,0.0,WeatherDisplay:10.37,2013-04-26 21:56:00,
2013-04-26 23:01:00,41.6,39.4,29.99,North,353,2.3,2.3,92,0.00,CLR,,0.14,0.0,WeatherDisplay:10.37,2013-04-26 22:01:00,
2013-04-26 23:06:00,41.3,39.2,29.99,North,356,3.5,3.5,92,0.00,CLR,,0.14,0.0,WeatherDisplay:10.37,2013-04-26 22:06:00,
2013-04-26 23:11:00,41.1,39.0,29.99,NNW,343,3.5,3.5,92,0.00,CLR,,0.14,0.0,WeatherDisplay:10.37,2013-04-26 22:11:00,
2013-04-26 23:16:00,40.9,38.8,29.99,NW,323,4.6,4.6,92,0.00,CLR,,0.14,0.0,WeatherDisplay:10.37,2013-04-26 22:16:00,
2013-04-26 23:21:00,40.8,38.7,29.99,NNW,346,6.0,6.0,92,0.00,CLR,,0.14,0.0,WeatherDisplay:10.37,2013-04-26 22:21:00,
2013-04-26 23:26:00,40.6,38.5,30.00,NNW,340,2.3,2.3,92,0.00,CLR,,0.14,0.0,WeatherDisplay:10.37,2013-04-26 22:26:00,
2013-04-26 23:31:00,40.6,38.7,30.00,NNW,329,4.6,4.6,93,0.00,CLR,,0.14,0.0,WeatherDisplay:10.37,2013-04-26 22:31:00,
2013-04-26 23:36:00,40.5,38.6,30.00,NW,326,5.8,5.8,93,0.00,CLR,,0.14,0.0,WeatherDisplay:10.37,2013-04-26 22:36:00,
2013-04-26 23:41:00,40.5,38.6,30.00,North,350,6.9,6.9,93,0.00,CLR,,0.14,0.0,WeatherDisplay:10.37,2013-04-26 22:41:00,
2013-04-26 23:47:00,40.6,38.7,30.00,North,353,6.9,6.9,93,0.00,CLR,,0.14,0.0,WeatherDisplay:10.37,2013-04-26 22:47:00,
2013-04-26 23:52:00,40.6,38.7,30.00,SE,137,6.9,6.9,93,0.00,CLR,,0.14,0.0,WeatherDisplay:10.37,2013-04-26 22:52:00,
2013-04-26 23:57:00,40.8,38.7,30.00,NNW,343,9.2,9.2,92,0.00,CLR,,0.14,0.0,WeatherDisplay:10.37,2013-04-26 22:57:00,